Kezdőlap
METAR-TAF:

METAR-TAF

Repülőterek :

Foz do Iguaçu, Paraná, Brazília

földrajzi szélesség: 25-31S, földrajzi hosszúság: 054-35W, magasság: 180 m

Jelenlegi meteorológiai megfigyelések

A jelentés 46 perccel ezelõtt készült, 14:00 UTC
Északi szél 14 kt
Hőmérséklet 33°C
Páratartalom 44%
Légköri nyomás 1011 hPa
Látótávolság 10 km, vagy több
felhőtlen 1500 m magasságban, és nincs gomolyfelhõ

METAR: SBFI 231400Z 01014KT CAVOK 33/19 Q1011

Idő: 11:46 (14:46 UTC)

Előrejelzés

A jelentés 5 órával és 1 perccel ezelõtt készült, 09:45 UTC
Az előrejelzés 23-én 12 óra UTC és 24-én 12 óra UTC között érvényes
Északkeleti szél 7 kt
Látótávolság 10 km, vagy több
felhőtlen 1500 m magasságban, és nincs gomolyfelhõ

TAF: SBFI 230945Z 2312/2412 05007KT CAVOK TX34/2318Z TN22/2408Z RMK PE B

Meteorológiai megfigyelések és előrejelzések több, mint 4000 repülőtéren (METAR és TAF jelentéseket).

A térképen piros és sárga pontok jelzik az elérhető meteorológiai állomásokat.

Mozgassa az egeret a pont fölött, hogy megjelenjen az állomás neve.

Azután kattintson az időjárási megfigyelések és előrejelzések megtekintéséhez.

A térkép megváltoztatása: kattintson a fekete keresztel jelölt zöld gombra ráközelítéshez, a vonallal jelölt zöld gombra távolításhoz, vagy a zöld nyilakra a szomszédos térképek eléréséhez.


METAR-TAF: